sensor_id;sensor_type;location;lat;lon;timestamp;temperature;humidity
9201;DHT22;4635;48.686;9.008;2022-11-11T00:01:45;4.40;99.90
9201;DHT22;4635;48.686;9.008;2022-11-11T00:04:18;4.40;99.90
9201;DHT22;4635;48.686;9.008;2022-11-11T00:06:49;4.30;99.90
9201;DHT22;4635;48.686;9.008;2022-11-11T00:09:19;4.20;99.90
9201;DHT22;4635;48.686;9.008;2022-11-11T00:11:52;4.20;99.90
9201;DHT22;4635;48.686;9.008;2022-11-11T00:14:27;4.20;99.90
9201;DHT22;4635;48.686;9.008;2022-11-11T00:16:56;4.10;99.90
9201;DHT22;4635;48.686;9.008;2022-11-11T00:19:41;4.10;99.90
9201;DHT22;4635;48.686;9.008;2022-11-11T00:22:30;4.00;99.90
9201;DHT22;4635;48.686;9.008;2022-11-11T00:25:17;3.90;99.90
9201;DHT22;4635;48.686;9.008;2022-11-11T00:27:46;3.90;99.90
9201;DHT22;4635;48.686;9.008;2022-11-11T00:30:16;3.90;99.90
9201;DHT22;4635;48.686;9.008;2022-11-11T00:32:45;3.80;99.90
9201;DHT22;4635;48.686;9.008;2022-11-11T00:35:23;3.90;99.90
9201;DHT22;4635;48.686;9.008;2022-11-11T00:38:10;3.80;99.90
9201;DHT22;4635;48.686;9.008;2022-11-11T00:40:52;3.90;99.90
9201;DHT22;4635;48.686;9.008;2022-11-11T00:43:22;3.90;99.90
9201;DHT22;4635;48.686;9.008;2022-11-11T00:45:56;3.90;99.90
9201;DHT22;4635;48.686;9.008;2022-11-11T00:48:39;3.80;99.90
9201;DHT22;4635;48.686;9.008;2022-11-11T00:51:25;3.90;99.90
9201;DHT22;4635;48.686;9.008;2022-11-11T00:53:56;3.80;99.90
9201;DHT22;4635;48.686;9.008;2022-11-11T00:56:27;3.80;99.90
9201;DHT22;4635;48.686;9.008;2022-11-11T00:58:58;3.80;99.90
9201;DHT22;4635;48.686;9.008;2022-11-11T01:01:28;3.70;99.90
9201;DHT22;4635;48.686;9.008;2022-11-11T01:04:00;3.80;99.90
9201;DHT22;4635;48.686;9.008;2022-11-11T01:06:30;3.70;99.90
9201;DHT22;4635;48.686;9.008;2022-11-11T01:09:04;3.70;99.90
9201;DHT22;4635;48.686;9.008;2022-11-11T01:11:33;3.70;99.90
9201;DHT22;4635;48.686;9.008;2022-11-11T01:14:02;3.70;99.90
9201;DHT22;4635;48.686;9.008;2022-11-11T01:16:32;3.70;99.90
9201;DHT22;4635;48.686;9.008;2022-11-11T01:19:01;3.60;99.90
9201;DHT22;4635;48.686;9.008;2022-11-11T01:21:29;3.60;99.90
9201;DHT22;4635;48.686;9.008;2022-11-11T01:23:58;3.60;99.90
9201;DHT22;4635;48.686;9.008;2022-11-11T01:26:28;3.60;99.90
9201;DHT22;4635;48.686;9.008;2022-11-11T01:28:56;3.70;99.90
9201;DHT22;4635;48.686;9.008;2022-11-11T01:31:26;3.80;99.90
9201;DHT22;4635;48.686;9.008;2022-11-11T01:33:57;3.80;99.90
9201;DHT22;4635;48.686;9.008;2022-11-11T01:36:26;3.70;99.90
9201;DHT22;4635;48.686;9.008;2022-11-11T01:38:57;3.70;99.90
9201;DHT22;4635;48.686;9.008;2022-11-11T01:41:29;3.60;99.90
9201;DHT22;4635;48.686;9.008;2022-11-11T01:47:03;3.50;99.90
9201;DHT22;4635;48.686;9.008;2022-11-11T01:49:38;3.40;99.90
9201;DHT22;4635;48.686;9.008;2022-11-11T01:52:11;3.40;99.90
9201;DHT22;4635;48.686;9.008;2022-11-11T01:54:47;3.40;99.90
9201;DHT22;4635;48.686;9.008;2022-11-11T01:57:21;3.40;99.90
9201;DHT22;4635;48.686;9.008;2022-11-11T01:59:55;3.40;99.90
9201;DHT22;4635;48.686;9.008;2022-11-11T02:02:32;3.40;99.90
9201;DHT22;4635;48.686;9.008;2022-11-11T02:05:06;3.50;99.90
9201;DHT22;4635;48.686;9.008;2022-11-11T02:07:54;3.50;99.90
9201;DHT22;4635;48.686;9.008;2022-11-11T02:10:27;3.20;99.90
9201;DHT22;4635;48.686;9.008;2022-11-11T02:12:57;3.40;99.90
9201;DHT22;4635;48.686;9.008;2022-11-11T02:15:42;3.40;99.90
9201;DHT22;4635;48.686;9.008;2022-11-11T02:18:11;3.40;99.90
9201;DHT22;4635;48.686;9.008;2022-11-11T02:20:43;3.30;99.90
9201;DHT22;4635;48.686;9.008;2022-11-11T02:23:15;3.30;99.90
9201;DHT22;4635;48.686;9.008;2022-11-11T02:25:47;3.30;99.90
9201;DHT22;4635;48.686;9.008;2022-11-11T02:28:18;3.20;99.90
9201;DHT22;4635;48.686;9.008;2022-11-11T02:30:48;3.20;99.90
9201;DHT22;4635;48.686;9.008;2022-11-11T02:33:16;3.20;99.90
9201;DHT22;4635;48.686;9.008;2022-11-11T02:35:49;3.20;99.90
9201;DHT22;4635;48.686;9.008;2022-11-11T02:38:23;3.30;99.90
9201;DHT22;4635;48.686;9.008;2022-11-11T02:40:54;3.10;99.90
9201;DHT22;4635;48.686;9.008;2022-11-11T02:43:51;3.20;99.90
9201;DHT22;4635;48.686;9.008;2022-11-11T02:46:20;3.30;99.90
9201;DHT22;4635;48.686;9.008;2022-11-11T02:48:49;3.40;99.90
9201;DHT22;4635;48.686;9.008;2022-11-11T02:51:18;3.40;99.90
9201;DHT22;4635;48.686;9.008;2022-11-11T02:53:46;3.30;99.90
9201;DHT22;4635;48.686;9.008;2022-11-11T02:56:16;3.20;99.90
9201;DHT22;4635;48.686;9.008;2022-11-11T02:58:57;3.20;99.90
9201;DHT22;4635;48.686;9.008;2022-11-11T03:01:26;3.20;99.90
9201;DHT22;4635;48.686;9.008;2022-11-11T03:03:55;3.20;99.90
9201;DHT22;4635;48.686;9.008;2022-11-11T03:06:23;3.10;99.90
9201;DHT22;4635;48.686;9.008;2022-11-11T03:08:52;3.10;99.90
9201;DHT22;4635;48.686;9.008;2022-11-11T03:11:26;3.20;99.90
9201;DHT22;4635;48.686;9.008;2022-11-11T03:13:59;3.10;99.90
9201;DHT22;4635;48.686;9.008;2022-11-11T03:16:29;3.10;99.90
9201;DHT22;4635;48.686;9.008;2022-11-11T03:19:14;3.00;99.90
9201;DHT22;4635;48.686;9.008;2022-11-11T03:21:42;3.10;99.90
9201;DHT22;4635;48.686;9.008;2022-11-11T03:24:10;3.00;99.90
9201;DHT22;4635;48.686;9.008;2022-11-11T03:26:41;3.00;99.90
9201;DHT22;4635;48.686;9.008;2022-11-11T03:29:09;3.00;99.90
9201;DHT22;4635;48.686;9.008;2022-11-11T03:31:37;3.10;99.90
9201;DHT22;4635;48.686;9.008;2022-11-11T03:34:06;3.00;99.90
9201;DHT22;4635;48.686;9.008;2022-11-11T03:36:49;3.00;99.90
9201;DHT22;4635;48.686;9.008;2022-11-11T03:39:35;3.00;99.90
9201;DHT22;4635;48.686;9.008;2022-11-11T03:42:07;3.00;99.90
9201;DHT22;4635;48.686;9.008;2022-11-11T03:44:39;3.00;99.90
9201;DHT22;4635;48.686;9.008;2022-11-11T03:47:07;3.00;99.90
9201;DHT22;4635;48.686;9.008;2022-11-11T03:49:36;2.90;99.90
9201;DHT22;4635;48.686;9.008;2022-11-11T03:52:05;3.00;99.90
9201;DHT22;4635;48.686;9.008;2022-11-11T03:54:33;3.00;99.90
9201;DHT22;4635;48.686;9.008;2022-11-11T03:57:02;3.00;99.90
9201;DHT22;4635;48.686;9.008;2022-11-11T03:59:51;3.00;99.90
9201;DHT22;4635;48.686;9.008;2022-11-11T04:02:20;3.00;99.90
9201;DHT22;4635;48.686;9.008;2022-11-11T04:05:06;3.00;99.90
9201;DHT22;4635;48.686;9.008;2022-11-11T04:07:51;3.00;99.90
9201;DHT22;4635;48.686;9.008;2022-11-11T04:10:37;3.00;99.90
9201;DHT22;4635;48.686;9.008;2022-11-11T04:13:07;3.00;99.90
9201;DHT22;4635;48.686;9.008;2022-11-11T04:15:57;3.10;99.90
9201;DHT22;4635;48.686;9.008;2022-11-11T04:18:36;3.10;99.90
9201;DHT22;4635;48.686;9.008;2022-11-11T04:21:23;2.90;99.90
9201;DHT22;4635;48.686;9.008;2022-11-11T04:24:11;3.10;99.90
9201;DHT22;4635;48.686;9.008;2022-11-11T04:26:59;3.10;99.90
9201;DHT22;4635;48.686;9.008;2022-11-11T04:29:31;3.20;99.90
9201;DHT22;4635;48.686;9.008;2022-11-11T04:32:02;3.10;99.90
9201;DHT22;4635;48.686;9.008;2022-11-11T04:34:48;3.10;99.90
9201;DHT22;4635;48.686;9.008;2022-11-11T04:37:18;3.00;99.90
9201;DHT22;4635;48.686;9.008;2022-11-11T04:39:47;3.00;99.90
9201;DHT22;4635;48.686;9.008;2022-11-11T04:42:33;2.60;99.90
9201;DHT22;4635;48.686;9.008;2022-11-11T04:45:06;2.80;99.90
9201;DHT22;4635;48.686;9.008;2022-11-11T04:48:00;2.00;99.90
9201;DHT22;4635;48.686;9.008;2022-11-11T04:50:31;3.00;99.90
9201;DHT22;4635;48.686;9.008;2022-11-11T04:53:04;2.80;99.90
9201;DHT22;4635;48.686;9.008;2022-11-11T04:55:34;2.80;99.90
9201;DHT22;4635;48.686;9.008;2022-11-11T04:58:30;2.80;99.90
9201;DHT22;4635;48.686;9.008;2022-11-11T05:01:00;2.80;99.90
9201;DHT22;4635;48.686;9.008;2022-11-11T05:03:33;2.80;99.90
9201;DHT22;4635;48.686;9.008;2022-11-11T05:06:04;2.60;99.90
9201;DHT22;4635;48.686;9.008;2022-11-11T05:08:50;2.70;99.90
9201;DHT22;4635;48.686;9.008;2022-11-11T05:11:29;2.80;99.90
9201;DHT22;4635;48.686;9.008;2022-11-11T05:14:00;3.00;99.90
9201;DHT22;4635;48.686;9.008;2022-11-11T05:16:50;3.00;99.90
9201;DHT22;4635;48.686;9.008;2022-11-11T05:19:37;3.10;99.90
9201;DHT22;4635;48.686;9.008;2022-11-11T05:22:29;3.20;99.90
9201;DHT22;4635;48.686;9.008;2022-11-11T05:25:08;3.20;99.90
9201;DHT22;4635;48.686;9.008;2022-11-11T05:27:53;3.20;99.90
9201;DHT22;4635;48.686;9.008;2022-11-11T05:30:25;3.10;99.90
9201;DHT22;4635;48.686;9.008;2022-11-11T05:32:54;3.00;99.90
9201;DHT22;4635;48.686;9.008;2022-11-11T05:35:30;3.00;99.90
9201;DHT22;4635;48.686;9.008;2022-11-11T05:38:03;2.90;99.90
9201;DHT22;4635;48.686;9.008;2022-11-11T05:40:48;2.70;99.90
9201;DHT22;4635;48.686;9.008;2022-11-11T05:43:22;2.80;99.90
9201;DHT22;4635;48.686;9.008;2022-11-11T05:45:51;2.70;99.90
9201;DHT22;4635;48.686;9.008;2022-11-11T05:48:20;2.80;99.90
9201;DHT22;4635;48.686;9.008;2022-11-11T05:50:50;2.70;99.90
9201;DHT22;4635;48.686;9.008;2022-11-11T05:53:23;2.80;99.90
9201;DHT22;4635;48.686;9.008;2022-11-11T05:55:51;2.80;99.90
9201;DHT22;4635;48.686;9.008;2022-11-11T05:58:20;2.80;99.90
9201;DHT22;4635;48.686;9.008;2022-11-11T06:01:16;2.80;99.90
9201;DHT22;4635;48.686;9.008;2022-11-11T06:04:13;2.80;99.90
9201;DHT22;4635;48.686;9.008;2022-11-11T06:10:27;2.70;99.90
9201;DHT22;4635;48.686;9.008;2022-11-11T06:13:11;2.50;99.90
9201;DHT22;4635;48.686;9.008;2022-11-11T06:15:55;2.60;99.90
9201;DHT22;4635;48.686;9.008;2022-11-11T06:18:33;2.60;99.90
9201;DHT22;4635;48.686;9.008;2022-11-11T06:21:17;2.60;99.90
9201;DHT22;4635;48.686;9.008;2022-11-11T06:24:11;2.70;99.90
9201;DHT22;4635;48.686;9.008;2022-11-11T06:27:15;2.50;99.90
9201;DHT22;4635;48.686;9.008;2022-11-11T06:40:01;3.00;99.90
9201;DHT22;4635;48.686;9.008;2022-11-11T06:42:52;3.00;99.90
9201;DHT22;4635;48.686;9.008;2022-11-11T06:45:27;3.10;99.90
9201;DHT22;4635;48.686;9.008;2022-11-11T06:48:08;3.10;99.90
9201;DHT22;4635;48.686;9.008;2022-11-11T07:14:32;3.40;99.90
9201;DHT22;4635;48.686;9.008;2022-11-11T07:17:09;3.30;99.90
9201;DHT22;4635;48.686;9.008;2022-11-11T07:23:06;3.30;99.90
9201;DHT22;4635;48.686;9.008;2022-11-11T07:29:09;3.50;99.90
9201;DHT22;4635;48.686;9.008;2022-11-11T07:45:25;4.40;99.90
9201;DHT22;4635;48.686;9.008;2022-11-11T07:48:10;4.60;99.90
9201;DHT22;4635;48.686;9.008;2022-11-11T07:50:42;4.80;99.90
9201;DHT22;4635;48.686;9.008;2022-11-11T07:53:12;4.90;99.90
9201;DHT22;4635;48.686;9.008;2022-11-11T07:55:41;5.00;99.90
9201;DHT22;4635;48.686;9.008;2022-11-11T07:58:14;5.20;99.90
9201;DHT22;4635;48.686;9.008;2022-11-11T08:04:34;5.50;99.90
9201;DHT22;4635;48.686;9.008;2022-11-11T08:07:09;5.60;99.90
9201;DHT22;4635;48.686;9.008;2022-11-11T08:09:51;5.90;99.90
9201;DHT22;4635;48.686;9.008;2022-11-11T08:12:28;6.30;99.90
9201;DHT22;4635;48.686;9.008;2022-11-11T08:15:14;6.30;99.90
9201;DHT22;4635;48.686;9.008;2022-11-11T08:21:18;6.80;99.90
9201;DHT22;4635;48.686;9.008;2022-11-11T08:23:47;7.40;99.90
9201;DHT22;4635;48.686;9.008;2022-11-11T08:26:26;7.90;99.90
9201;DHT22;4635;48.686;9.008;2022-11-11T08:29:09;8.40;99.90
9201;DHT22;4635;48.686;9.008;2022-11-11T08:31:42;9.00;99.90
9201;DHT22;4635;48.686;9.008;2022-11-11T08:34:23;9.40;99.90
9201;DHT22;4635;48.686;9.008;2022-11-11T08:37:14;9.60;99.90
9201;DHT22;4635;48.686;9.008;2022-11-11T08:39:59;9.50;99.90
9201;DHT22;4635;48.686;9.008;2022-11-11T08:42:48;9.20;99.90
9201;DHT22;4635;48.686;9.008;2022-11-11T08:45:31;8.90;99.90
9201;DHT22;4635;48.686;9.008;2022-11-11T08:48:03;9.10;99.90
9201;DHT22;4635;48.686;9.008;2022-11-11T08:50:52;9.30;99.90
9201;DHT22;4635;48.686;9.008;2022-11-11T08:59:48;9.50;99.90
9201;DHT22;4635;48.686;9.008;2022-11-11T09:02:35;9.20;99.90
9201;DHT22;4635;48.686;9.008;2022-11-11T09:05:29;9.00;99.90
9201;DHT22;4635;48.686;9.008;2022-11-11T09:08:21;9.00;99.90
9201;DHT22;4635;48.686;9.008;2022-11-11T09:14:09;8.80;99.90
9201;DHT22;4635;48.686;9.008;2022-11-11T09:23:31;8.60;99.90
9201;DHT22;4635;48.686;9.008;2022-11-11T09:26:24;8.50;99.90
9201;DHT22;4635;48.686;9.008;2022-11-11T09:34:59;8.30;99.90
9201;DHT22;4635;48.686;9.008;2022-11-11T09:41:30;8.50;99.90
9201;DHT22;4635;48.686;9.008;2022-11-11T09:44:20;8.40;99.90
9201;DHT22;4635;48.686;9.008;2022-11-11T09:47:15;8.40;99.90
9201;DHT22;4635;48.686;9.008;2022-11-11T09:51:47;8.70;99.90
9201;DHT22;4635;48.686;9.008;2022-11-11T09:53:24;8.80;99.90
9201;DHT22;4635;48.686;9.008;2022-11-11T09:56:33;8.90;99.90
9201;DHT22;4635;48.686;9.008;2022-11-11T10:02:34;9.40;99.90
9201;DHT22;4635;48.686;9.008;2022-11-11T10:05:33;9.50;99.90
9201;DHT22;4635;48.686;9.008;2022-11-11T10:12:00;10.00;99.90
9201;DHT22;4635;48.686;9.008;2022-11-11T10:14:50;10.20;99.90
9201;DHT22;4635;48.686;9.008;2022-11-11T10:17:58;10.50;99.90
9201;DHT22;4635;48.686;9.008;2022-11-11T10:20:55;10.60;99.90
9201;DHT22;4635;48.686;9.008;2022-11-11T10:24:00;10.80;99.90
9201;DHT22;4635;48.686;9.008;2022-11-11T10:26:54;11.00;99.90
9201;DHT22;4635;48.686;9.008;2022-11-11T10:37:46;11.20;99.90
9201;DHT22;4635;48.686;9.008;2022-11-11T10:40:49;11.40;99.90
9201;DHT22;4635;48.686;9.008;2022-11-11T10:43:27;11.70;99.90
9201;DHT22;4635;48.686;9.008;2022-11-11T10:46:18;11.90;99.90
9201;DHT22;4635;48.686;9.008;2022-11-11T10:48:59;11.40;99.90
9201;DHT22;4635;48.686;9.008;2022-11-11T10:51:41;11.30;99.90
9201;DHT22;4635;48.686;9.008;2022-11-11T10:54:24;11.40;99.90
9201;DHT22;4635;48.686;9.008;2022-11-11T10:57:18;11.50;99.90
9201;DHT22;4635;48.686;9.008;2022-11-11T11:03:36;12.00;99.90
9201;DHT22;4635;48.686;9.008;2022-11-11T11:58:29;12.90;88.90
9201;DHT22;4635;48.686;9.008;2022-11-11T12:04:38;12.80;92.20
9201;DHT22;4635;48.686;9.008;2022-11-11T12:07:57;12.80;92.60
9201;DHT22;4635;48.686;9.008;2022-11-11T17:46:26;7.70;99.90
9201;DHT22;4635;48.686;9.008;2022-11-11T17:49:03;7.60;99.90
9201;DHT22;4635;48.686;9.008;2022-11-11T17:51:35;7.50;99.90
9201;DHT22;4635;48.686;9.008;2022-11-11T17:54:31;7.40;99.90
9201;DHT22;4635;48.686;9.008;2022-11-11T17:57:19;7.40;99.90
9201;DHT22;4635;48.686;9.008;2022-11-11T18:00:16;7.30;99.90
9201;DHT22;4635;48.686;9.008;2022-11-11T18:02:49;7.30;99.90
9201;DHT22;4635;48.686;9.008;2022-11-11T18:05:27;7.20;87.10
9201;DHT22;4635;48.686;9.008;2022-11-11T18:08:14;7.20;99.90
9201;DHT22;4635;48.686;9.008;2022-11-11T18:10:52;7.10;99.90
9201;DHT22;4635;48.686;9.008;2022-11-11T18:13:35;7.10;99.90
9201;DHT22;4635;48.686;9.008;2022-11-11T18:16:24;7.10;99.90
9201;DHT22;4635;48.686;9.008;2022-11-11T18:19:44;7.10;67.50
9201;DHT22;4635;48.686;9.008;2022-11-11T18:22:20;7.10;99.90
9201;DHT22;4635;48.686;9.008;2022-11-11T18:25:03;7.00;99.90
9201;DHT22;4635;48.686;9.008;2022-11-11T18:27:36;6.90;99.90
9201;DHT22;4635;48.686;9.008;2022-11-11T18:30:20;6.90;99.90
9201;DHT22;4635;48.686;9.008;2022-11-11T18:32:49;6.80;99.90
9201;DHT22;4635;48.686;9.008;2022-11-11T18:35:20;6.80;99.90
9201;DHT22;4635;48.686;9.008;2022-11-11T18:37:53;6.70;99.90
9201;DHT22;4635;48.686;9.008;2022-11-11T18:40:27;6.70;99.90
9201;DHT22;4635;48.686;9.008;2022-11-11T18:42:58;5.90;99.90
9201;DHT22;4635;48.686;9.008;2022-11-11T18:45:30;6.60;99.90
9201;DHT22;4635;48.686;9.008;2022-11-11T18:47:59;6.70;99.90
9201;DHT22;4635;48.686;9.008;2022-11-11T18:50:34;6.40;99.90
9201;DHT22;4635;48.686;9.008;2022-11-11T18:53:24;6.50;99.90
9201;DHT22;4635;48.686;9.008;2022-11-11T18:56:07;6.40;99.90
9201;DHT22;4635;48.686;9.008;2022-11-11T18:58:38;6.40;99.90
9201;DHT22;4635;48.686;9.008;2022-11-11T19:01:13;6.40;99.90
9201;DHT22;4635;48.686;9.008;2022-11-11T19:03:44;6.40;99.90
9201;DHT22;4635;48.686;9.008;2022-11-11T19:09:38;6.20;99.90
9201;DHT22;4635;48.686;9.008;2022-11-11T19:12:12;6.40;99.90
9201;DHT22;4635;48.686;9.008;2022-11-11T19:14:44;6.30;99.90
9201;DHT22;4635;48.686;9.008;2022-11-11T19:17:13;6.30;99.90
9201;DHT22;4635;48.686;9.008;2022-11-11T19:19:49;6.20;99.90
9201;DHT22;4635;48.686;9.008;2022-11-11T19:22:25;6.20;99.90
9201;DHT22;4635;48.686;9.008;2022-11-11T19:24:54;6.20;99.90
9201;DHT22;4635;48.686;9.008;2022-11-11T19:27:23;6.20;99.90
9201;DHT22;4635;48.686;9.008;2022-11-11T19:29:53;6.20;99.90
9201;DHT22;4635;48.686;9.008;2022-11-11T19:32:27;6.10;99.90
9201;DHT22;4635;48.686;9.008;2022-11-11T19:34:59;6.10;99.90
9201;DHT22;4635;48.686;9.008;2022-11-11T19:37:29;6.10;99.90
9201;DHT22;4635;48.686;9.008;2022-11-11T19:40:00;6.10;99.90
9201;DHT22;4635;48.686;9.008;2022-11-11T19:42:28;6.10;99.90
9201;DHT22;4635;48.686;9.008;2022-11-11T19:44:59;6.00;99.90
9201;DHT22;4635;48.686;9.008;2022-11-11T19:47:31;6.00;99.90
9201;DHT22;4635;48.686;9.008;2022-11-11T19:50:30;6.00;99.90
9201;DHT22;4635;48.686;9.008;2022-11-11T19:53:06;5.90;99.90
9201;DHT22;4635;48.686;9.008;2022-11-11T19:55:40;5.90;99.90
9201;DHT22;4635;48.686;9.008;2022-11-11T19:58:09;5.90;99.90
9201;DHT22;4635;48.686;9.008;2022-11-11T20:00:39;5.90;99.90
9201;DHT22;4635;48.686;9.008;2022-11-11T20:03:27;5.80;99.90
9201;DHT22;4635;48.686;9.008;2022-11-11T20:06:16;5.80;99.90
9201;DHT22;4635;48.686;9.008;2022-11-11T20:09:15;5.80;99.90
9201;DHT22;4635;48.686;9.008;2022-11-11T20:12:25;5.80;99.90
9201;DHT22;4635;48.686;9.008;2022-11-11T20:15:46;5.80;93.20
9201;DHT22;4635;48.686;9.008;2022-11-11T20:18:33;5.80;53.50
9201;DHT22;4635;48.686;9.008;2022-11-11T20:21:35;5.80;75.20
9201;DHT22;4635;48.686;9.008;2022-11-11T20:24:34;5.80;72.90
9201;DHT22;4635;48.686;9.008;2022-11-11T20:27:27;5.90;94.10
9201;DHT22;4635;48.686;9.008;2022-11-11T20:30:31;5.90;86.40
9201;DHT22;4635;48.686;9.008;2022-11-11T20:33:15;5.70;78.20
9201;DHT22;4635;48.686;9.008;2022-11-11T20:36:07;5.60;99.90
9201;DHT22;4635;48.686;9.008;2022-11-11T20:41:59;5.40;99.90
9201;DHT22;4635;48.686;9.008;2022-11-11T20:44:35;5.40;82.30
9201;DHT22;4635;48.686;9.008;2022-11-11T20:47:08;5.50;90.10
9201;DHT22;4635;48.686;9.008;2022-11-11T20:49:43;5.50;99.90
9201;DHT22;4635;48.686;9.008;2022-11-11T20:52:32;5.50;99.90
9201;DHT22;4635;48.686;9.008;2022-11-11T20:55:13;5.50;99.90
9201;DHT22;4635;48.686;9.008;2022-11-11T20:58:35;5.60;99.90
9201;DHT22;4635;48.686;9.008;2022-11-11T21:01:31;5.80;99.90
9201;DHT22;4635;48.686;9.008;2022-11-11T21:04:12;5.80;99.90
9201;DHT22;4635;48.686;9.008;2022-11-11T21:06:51;5.90;99.90
9201;DHT22;4635;48.686;9.008;2022-11-11T21:09:27;5.80;99.90
9201;DHT22;4635;48.686;9.008;2022-11-11T21:12:09;5.90;99.90
9201;DHT22;4635;48.686;9.008;2022-11-11T21:14:40;5.90;75.20
9201;DHT22;4635;48.686;9.008;2022-11-11T21:17:24;5.90;99.90
9201;DHT22;4635;48.686;9.008;2022-11-11T21:20:09;5.70;99.90
9201;DHT22;4635;48.686;9.008;2022-11-11T21:22:42;5.90;99.90
9201;DHT22;4635;48.686;9.008;2022-11-11T21:25:14;6.00;99.90
9201;DHT22;4635;48.686;9.008;2022-11-11T21:27:48;5.80;99.90
9201;DHT22;4635;48.686;9.008;2022-11-11T21:30:18;5.80;99.90
9201;DHT22;4635;48.686;9.008;2022-11-11T21:32:53;5.70;99.90
9201;DHT22;4635;48.686;9.008;2022-11-11T21:35:23;5.70;99.90
9201;DHT22;4635;48.686;9.008;2022-11-11T21:38:12;5.60;99.90
9201;DHT22;4635;48.686;9.008;2022-11-11T21:40:40;5.60;99.90
9201;DHT22;4635;48.686;9.008;2022-11-11T21:43:11;5.60;8.60
9201;DHT22;4635;48.686;9.008;2022-11-11T21:45:42;5.60;99.90
9201;DHT22;4635;48.686;9.008;2022-11-11T21:48:13;5.60;99.90
9201;DHT22;4635;48.686;9.008;2022-11-11T21:50:45;5.60;99.90
9201;DHT22;4635;48.686;9.008;2022-11-11T21:53:24;5.60;99.90
9201;DHT22;4635;48.686;9.008;2022-11-11T21:56:52;5.60;99.90
9201;DHT22;4635;48.686;9.008;2022-11-11T21:59:15;5.60;99.90
9201;DHT22;4635;48.686;9.008;2022-11-11T22:05:07;5.50;99.90
9201;DHT22;4635;48.686;9.008;2022-11-11T22:07:37;5.50;99.90
9201;DHT22;4635;48.686;9.008;2022-11-11T22:10:12;5.50;99.90
9201;DHT22;4635;48.686;9.008;2022-11-11T22:12:41;5.50;42.40
9201;DHT22;4635;48.686;9.008;2022-11-11T22:15:09;5.40;99.90
9201;DHT22;4635;48.686;9.008;2022-11-11T22:17:44;5.40;99.90
9201;DHT22;4635;48.686;9.008;2022-11-11T22:20:13;5.30;99.90
9201;DHT22;4635;48.686;9.008;2022-11-11T22:22:42;5.40;33.50
9201;DHT22;4635;48.686;9.008;2022-11-11T22:25:14;5.30;81.20
9201;DHT22;4635;48.686;9.008;2022-11-11T22:27:42;5.30;15.00
9201;DHT22;4635;48.686;9.008;2022-11-11T22:30:12;5.30;33.80
9201;DHT22;4635;48.686;9.008;2022-11-11T22:32:43;5.40;19.90
9201;DHT22;4635;48.686;9.008;2022-11-11T22:35:12;5.30;98.20
9201;DHT22;4635;48.686;9.008;2022-11-11T22:37:40;5.30;49.50
9201;DHT22;4635;48.686;9.008;2022-11-11T22:40:12;5.30;26.10
9201;DHT22;4635;48.686;9.008;2022-11-11T22:42:42;4.50;57.30
9201;DHT22;4635;48.686;9.008;2022-11-11T22:45:11;5.20;58.30
9201;DHT22;4635;48.686;9.008;2022-11-11T22:47:57;5.20;99.90
9201;DHT22;4635;48.686;9.008;2022-11-11T22:50:25;5.20;99.90
9201;DHT22;4635;48.686;9.008;2022-11-11T22:52:54;5.10;99.90
9201;DHT22;4635;48.686;9.008;2022-11-11T22:55:29;5.10;99.90
9201;DHT22;4635;48.686;9.008;2022-11-11T22:57:58;5.10;99.90
9201;DHT22;4635;48.686;9.008;2022-11-11T23:00:28;5.00;99.90
9201;DHT22;4635;48.686;9.008;2022-11-11T23:03:00;5.00;99.90
9201;DHT22;4635;48.686;9.008;2022-11-11T23:05:28;5.00;79.30
9201;DHT22;4635;48.686;9.008;2022-11-11T23:07:58;5.00;58.60
9201;DHT22;4635;48.686;9.008;2022-11-11T23:10:27;4.90;27.90
9201;DHT22;4635;48.686;9.008;2022-11-11T23:12:55;4.80;94.60
9201;DHT22;4635;48.686;9.008;2022-11-11T23:15:26;4.80;99.90
9201;DHT22;4635;48.686;9.008;2022-11-11T23:18:03;4.70;96.50
9201;DHT22;4635;48.686;9.008;2022-11-11T23:20:35;4.60;99.90
9201;DHT22;4635;48.686;9.008;2022-11-11T23:23:04;4.60;99.90
9201;DHT22;4635;48.686;9.008;2022-11-11T23:25:33;4.60;99.90
9201;DHT22;4635;48.686;9.008;2022-11-11T23:28:02;4.60;1.00
9201;DHT22;4635;48.686;9.008;2022-11-11T23:30:31;4.50;44.80
9201;DHT22;4635;48.686;9.008;2022-11-11T23:33:01;4.50;99.90
9201;DHT22;4635;48.686;9.008;2022-11-11T23:35:30;4.50;36.70
9201;DHT22;4635;48.686;9.008;2022-11-11T23:37:59;4.70;99.90
9201;DHT22;4635;48.686;9.008;2022-11-11T23:40:27;4.60;99.90
9201;DHT22;4635;48.686;9.008;2022-11-11T23:43:00;4.30;2.10
9201;DHT22;4635;48.686;9.008;2022-11-11T23:45:32;4.40;1.00
9201;DHT22;4635;48.686;9.008;2022-11-11T23:48:02;4.40;1.00
9201;DHT22;4635;48.686;9.008;2022-11-11T23:50:31;4.30;1.00
9201;DHT22;4635;48.686;9.008;2022-11-11T23:53:00;4.30;99.90
9201;DHT22;4635;48.686;9.008;2022-11-11T23:55:29;4.30;99.90
9201;DHT22;4635;48.686;9.008;2022-11-11T23:58:02;4.20;99.90
